Time,TemperatureF,DewpointF,PressureIn,WindDirection,WindDirectionDegrees,WindSpeedMPH,WindSpeedGustMPH,Humidity,HourlyPrecipIn,Conditions,Clouds,dailyrainin,SolarRadiationWatts/m^2,SoftwareType,DateUTC
2013-02-02 02:00:00,34.0,32.0,-100.00,NNE,14,0.0,-999.0,94,-99.99,,,-99.99,0.000000,,2013-02-02 08:00:00,
2013-02-02 02:53:00,34.0,32.0,-100.00,NNE,14,0.0,-999.0,94,-99.99,,,-99.99,0.000000,,2013-02-02 08:53:00,
2013-02-02 03:00:00,32.0,31.0,-100.00,NNE,12,0.0,-999.0,95,-99.99,,,-99.99,0.000000,,2013-02-02 09:00:00,
2013-02-02 03:52:00,32.0,31.0,-100.00,NNE,12,0.0,-999.0,95,-99.99,,,-99.99,0.000000,,2013-02-02 09:52:00,
2013-02-02 04:00:00,32.0,30.0,-100.00,North,356,0.0,-999.0,96,-99.99,,,-99.99,0.000000,,2013-02-02 10:00:00,
2013-02-02 04:52:00,32.0,30.0,-100.00,North,356,0.0,-999.0,96,-99.99,,,-99.99,0.000000,,2013-02-02 10:52:00,
2013-02-02 05:00:00,31.0,30.0,-100.00,North,356,0.0,-999.0,96,-99.99,,,-99.99,0.000000,,2013-02-02 11:00:00,
2013-02-02 05:52:00,31.0,30.0,-100.00,North,356,0.0,-999.0,96,-99.99,,,-99.99,0.000000,,2013-02-02 11:52:00,
2013-02-02 06:00:00,30.0,29.0,-100.00,North,1,0.0,-999.0,97,-99.99,,,-99.99,0.000000,,2013-02-02 12:00:00,
2013-02-02 06:52:00,30.0,29.0,-100.00,North,1,0.0,-999.0,97,-99.99,,,-99.99,0.000000,,2013-02-02 12:52:00,
2013-02-02 07:00:00,30.0,29.0,-100.00,North,7,0.0,-999.0,97,-99.99,,,-99.99,2.530000,,2013-02-02 13:00:00,
2013-02-02 07:52:00,30.0,29.0,-100.00,North,7,0.0,-999.0,97,-99.99,,,-99.99,2.530000,,2013-02-02 13:52:00,
2013-02-02 08:00:00,40.0,33.0,-100.00,NE,45,1.0,-999.0,75,-99.99,,,-99.99,98.800003,,2013-02-02 14:00:00,
2013-02-02 08:52:00,40.0,33.0,-100.00,NE,45,1.0,-999.0,75,-99.99,,,-99.99,98.800003,,2013-02-02 14:52:00,
2013-02-02 09:00:00,50.0,29.0,-100.00,East,88,2.0,-999.0,44,-99.99,,,-99.99,306.660004,,2013-02-02 15:00:00,
2013-02-02 09:52:00,50.0,29.0,-100.00,East,88,2.0,-999.0,44,-99.99,,,-99.99,306.660004,,2013-02-02 15:52:00,
2013-02-02 10:00:00,56.0,31.0,-100.00,ESE,115,3.0,-999.0,37,-99.99,,,-99.99,461.420013,,2013-02-02 16:00:00,
2013-02-02 10:52:00,56.0,31.0,-100.00,ESE,115,3.0,-999.0,37,-99.99,,,-99.99,461.420013,,2013-02-02 16:52:00,
2013-02-02 11:00:00,61.0,38.0,-100.00,SE,129,4.0,-999.0,42,-99.99,,,-99.99,585.010010,,2013-02-02 17:00:00,
2013-02-02 11:52:00,61.0,38.0,-100.00,SE,129,4.0,-999.0,42,-99.99,,,-99.99,585.010010,,2013-02-02 17:52:00,
2013-02-02 12:00:00,64.0,43.0,-100.00,SSE,150,5.0,-999.0,47,-99.99,,,-99.99,652.549988,,2013-02-02 18:00:00,
2013-02-02 12:52:00,64.0,43.0,-100.00,SSE,150,5.0,-999.0,47,-99.99,,,-99.99,652.549988,,2013-02-02 18:52:00,
2013-02-02 13:00:00,63.0,48.0,-100.00,SSE,158,6.0,-999.0,57,-99.99,,,-99.99,656.070007,,2013-02-02 19:00:00,
2013-02-02 13:52:00,63.0,48.0,-100.00,SSE,158,6.0,-999.0,57,-99.99,,,-99.99,656.070007,,2013-02-02 19:52:00,
2013-02-02 14:00:00,64.0,48.0,-100.00,SSE,164,6.0,-999.0,56,-99.99,,,-99.99,544.919983,,2013-02-02 20:00:00,
2013-02-02 14:52:00,64.0,48.0,-100.00,SSE,164,6.0,-999.0,56,-99.99,,,-99.99,544.919983,,2013-02-02 20:52:00,
2013-02-02 15:00:00,64.0,49.0,-100.00,SSE,163,6.0,-999.0,57,-99.99,,,-99.99,497.709991,,2013-02-02 21:00:00,
2013-02-02 15:52:00,64.0,49.0,-100.00,SSE,163,6.0,-999.0,57,-99.99,,,-99.99,497.709991,,2013-02-02 21:52:00,
2013-02-02 16:00:00,63.0,49.0,-100.00,South,173,5.0,-999.0,59,-99.99,,,-99.99,339.910004,,2013-02-02 22:00:00,
2013-02-02 16:52:00,63.0,49.0,-100.00,South,173,5.0,-999.0,59,-99.99,,,-99.99,339.910004,,2013-02-02 22:52:00,
2013-02-02 17:00:00,60.0,50.0,-100.00,South,182,5.0,-999.0,70,-99.99,,,-99.99,145.539993,,2013-02-02 23:00:00,
2013-02-02 17:52:00,60.0,50.0,-100.00,South,182,5.0,-999.0,70,-99.99,,,-99.99,145.539993,,2013-02-02 23:52:00,
2013-02-02 18:00:00,54.0,50.0,-100.00,SSE,152,1.0,-999.0,87,-99.99,,,-99.99,14.810000,,2013-02-03 00:00:00,
2013-02-02 18:52:00,54.0,50.0,-100.00,SSE,152,1.0,-999.0,87,-99.99,,,-99.99,14.810000,,2013-02-03 00:52:00,
2013-02-02 19:00:00,50.0,48.0,-100.00,NNE,20,0.0,-999.0,94,-99.99,,,-99.99,0.000000,,2013-02-03 01:00:00,
2013-02-02 19:52:00,50.0,48.0,-100.00,NNE,20,0.0,-999.0,94,-99.99,,,-99.99,0.000000,,2013-02-03 01:52:00,
2013-02-02 20:00:00,48.0,47.0,-100.00,North,6,0.0,-999.0,97,-99.99,,,-99.99,0.000000,,2013-02-03 02:00:00,
2013-02-02 20:52:00,48.0,47.0,-100.00,North,6,0.0,-999.0,97,-99.99,,,-99.99,0.000000,,2013-02-03 02:52:00,
2013-02-02 21:00:00,46.0,45.0,-100.00,SW,221,0.0,-999.0,98,-99.99,,,-99.99,0.000000,,2013-02-03 03:00:00,
2013-02-02 21:52:00,46.0,45.0,-100.00,SW,221,0.0,-999.0,98,-99.99,,,-99.99,0.000000,,2013-02-03 03:52:00,
2013-02-02 22:00:00,44.0,44.0,-100.00,North,0,0.0,-999.0,98,-99.99,,,-99.99,0.000000,,2013-02-03 04:00:00,
2013-02-02 22:52:00,44.0,44.0,-100.00,North,0,0.0,-999.0,98,-99.99,,,-99.99,0.000000,,2013-02-03 04:52:00,
2013-02-02 23:00:00,51.0,50.0,-100.00,West,272,1.0,-999.0,99,-99.99,,,-99.99,0.000000,,2013-02-03 05:00:00,
2013-02-02 23:52:00,51.0,50.0,-100.00,West,272,1.0,-999.0,99,-99.99,,,-99.99,0.000000,,2013-02-03 05:52:00,